Time;durP1;ratioP1;P1;durP2;ratioP2;P2;SDS_P1;SDS_P2;PMS_P1;PMS_P2;Temp;Humidity;BMP_temperature;BMP_pressure;BME280_temperature;BME280_humidity;BME280_pressure;Samples;Min_cycle;Max_cycle;Signal;HPM_P1;HPM_P2
2020/12/10 00:00:40;;;;;;;15.30;8.20;;;;;;;2.34;45.91;100557.63;5031949;28;20146;-66
2020/12/10 00:03:08;;;;;;;15.52;8.18;;;;;;;2.31;45.83;100549.69;5032292;28;20041;-66
2020/12/10 00:05:35;;;;;;;16.63;8.55;;;;;;;2.31;46.12;100544.28;5019085;28;20064;-66
2020/12/10 00:08:03;;;;;;;16.80;9.10;;;;;;;2.29;46.00;100541.72;5032676;28;20463;-66
2020/12/10 00:10:31;;;;;;;15.00;8.60;;;;;;;2.28;45.58;100541.78;5030842;28;20481;-66
2020/12/10 00:12:59;;;;;;;16.33;7.85;;;;;;;2.26;45.92;100528.38;5033359;28;20030;-66
2020/12/10 00:15:27;;;;;;;16.65;7.60;;;;;;;2.26;46.09;100541.88;5048059;28;20045;-66
2020/12/10 00:17:55;;;;;;;16.95;8.00;;;;;;;2.26;45.78;100541.00;5032801;28;20607;-66
2020/12/10 00:20:22;;;;;;;14.40;7.65;;;;;;;2.24;45.65;100532.13;5031358;28;20083;-66
2020/12/10 00:22:50;;;;;;;15.07;8.25;;;;;;;2.23;46.11;100533.94;5024470;28;20037;-66
2020/12/10 00:25:17;;;;;;;18.23;9.00;;;;;;;2.23;46.00;100536.63;5031395;28;20045;-66
2020/12/10 00:27:45;;;;;;;15.13;8.02;;;;;;;2.21;46.06;100518.81;5032483;28;20057;-66
2020/12/10 00:30:13;;;;;;;17.05;8.82;;;;;;;2.23;45.93;100522.28;5031881;28;20049;-66
2020/12/10 00:32:40;;;;;;;15.80;8.15;;;;;;;2.22;45.97;100523.25;5032612;28;20116;-66
2020/12/10 00:35:09;;;;;;;15.18;8.05;;;;;;;2.22;45.84;100524.09;5030424;28;20517;-65
2020/12/10 00:37:37;;;;;;;16.00;8.05;;;;;;;2.21;46.07;100519.69;5032677;28;20046;-66
2020/12/10 00:40:08;;;;;;;16.70;7.95;;;;;;;2.22;45.87;100517.88;5031690;28;20052;-66
2020/12/10 00:42:35;;;;;;;15.10;7.80;;;;;;;2.19;46.13;100516.19;5031154;28;20046;-66
2020/12/10 00:45:03;;;;;;;13.18;7.05;;;;;;;2.20;45.86;100515.25;5032305;28;20069;-66
2020/12/10 00:47:31;;;;;;;14.63;7.43;;;;;;;2.19;46.33;100518.91;5047974;28;20521;-66
2020/12/10 00:49:58;;;;;;;15.38;8.43;;;;;;;2.18;46.11;100512.63;5040556;28;20042;-66
2020/12/10 00:52:27;;;;;;;17.85;8.27;;;;;;;2.19;46.02;100505.41;5021177;28;20041;-66
2020/12/10 00:55:02;;;;;;;15.82;8.43;;;;;;;2.16;46.11;100516.38;5044859;28;20037;-66
2020/12/10 00:57:38;;;;;;;16.35;8.45;;;;;;;2.16;46.21;100503.75;5032478;28;20515;-66
2020/12/10 01:00:07;;;;;;;14.13;7.82;;;;;;;2.16;46.23;100503.75;5046726;28;20052;-66
2020/12/10 01:02:34;;;;;;;14.82;7.75;;;;;;;2.16;46.24;100498.34;5032446;28;20049;-66
2020/12/10 01:05:03;;;;;;;13.40;6.78;;;;;;;2.17;46.32;100499.22;5031866;28;20045;-66
2020/12/10 01:07:33;;;;;;;15.13;7.25;;;;;;;2.18;45.93;100490.16;5032205;28;20045;-66
2020/12/10 01:10:01;;;;;;;14.73;7.43;;;;;;;2.18;46.49;100488.34;5031382;28;20049;-66
2020/12/10 01:12:29;;;;;;;13.65;7.65;;;;;;;2.18;46.49;100484.78;5032227;28;20033;-66
2020/12/10 01:14:56;;;;;;;15.95;8.40;;;;;;;2.18;46.64;100479.38;5032052;28;20116;-66
2020/12/10 01:17:25;;;;;;;15.10;8.05;;;;;;;2.18;46.34;100482.06;5032392;28;20041;-66
2020/12/10 01:19:52;;;;;;;14.93;8.10;;;;;;;2.18;45.96;100480.25;5031182;28;20056;-66
2020/12/10 01:22:20;;;;;;;15.02;7.65;;;;;;;2.16;45.97;100476.75;5030732;28;20471;-66
2020/12/10 01:24:47;;;;;;;15.75;7.97;;;;;;;2.17;46.15;100478.50;5031647;28;20047;-66
2020/12/10 01:27:20;;;;;;;15.68;8.27;;;;;;;2.15;45.94;100476.84;5032034;28;20076;-66
2020/12/10 01:29:47;;;;;;;14.67;7.47;;;;;;;2.13;46.14;100468.00;5031201;28;20053;-66
2020/12/10 01:32:15;;;;;;;14.23;6.97;;;;;;;2.14;46.11;100477.78;5032028;28;20053;-66
2020/12/10 01:34:42;;;;;;;15.38;7.72;;;;;;;2.14;46.36;100470.56;5031971;28;20361;-66
2020/12/10 01:37:10;;;;;;;16.35;7.90;;;;;;;2.15;46.20;100474.16;5031974;28;20041;-66
2020/12/10 01:39:38;;;;;;;13.70;7.20;;;;;;;2.16;46.17;100470.50;5017923;28;20497;-66
2020/12/10 01:42:06;;;;;;;15.55;7.95;;;;;;;2.17;46.13;100474.94;5031838;28;20092;-66
2020/12/10 01:44:33;;;;;;;17.38;8.70;;;;;;;2.16;46.23;100459.69;5031754;28;20558;-66
2020/12/10 01:47:01;;;;;;;14.02;6.93;;;;;;;2.16;46.06;100465.09;5017595;28;20045;-66
2020/12/10 01:49:30;;;;;;;17.23;7.97;;;;;;;2.17;46.07;100466.84;5049103;28;20120;-66
2020/12/10 01:51:58;;;;;;;14.38;7.05;;;;;;;2.16;46.07;100465.97;5035168;28;20498;-66
2020/12/10 01:54:25;;;;;;;13.88;6.95;;;;;;;2.15;46.11;100466.91;5032442;28;20060;-66
2020/12/10 01:56:53;;;;;;;14.25;7.38;;;;;;;2.16;46.07;100467.78;5034391;28;20038;-66
2020/12/10 01:59:22;;;;;;;17.42;7.90;;;;;;;2.16;45.88;100470.50;5031815;28;20637;-65
2020/12/10 02:01:50;;;;;;;13.75;7.35;;;;;;;2.15;46.06;100458.81;5015361;28;20132;-66
2020/12/10 02:04:26;;;;;;;14.65;6.95;;;;;;;2.17;45.88;100464.16;5016539;28;20052;-66
2020/12/10 02:06:53;;;;;;;15.93;7.53;;;;;;;2.11;46.18;100462.69;5034837;28;20099;-66
2020/12/10 02:09:20;;;;;;;14.40;6.88;;;;;;;2.13;46.18;100463.47;5034292;28;20045;-66
2020/12/10 02:11:48;;;;;;;14.73;7.57;;;;;;;2.12;46.25;100460.84;5017179;28;20076;-66
2020/12/10 02:14:15;;;;;;;13.32;6.90;;;;;;;2.11;46.26;100453.72;5034826;28;20542;-66
2020/12/10 02:16:44;;;;;;;14.70;7.30;;;;;;;2.13;46.45;100459.91;5033716;28;20044;-66
2020/12/10 02:19:11;;;;;;;16.42;7.47;;;;;;;2.11;46.31;100459.97;5034157;28;20049;-66
2020/12/10 02:21:39;;;;;;;16.70;7.88;;;;;;;2.13;46.38;100457.19;5034418;28;20052;-66
2020/12/10 02:24:07;;;;;;;12.75;7.05;;;;;;;2.11;46.05;100454.59;5016842;28;20048;-66
2020/12/10 02:26:34;;;;;;;14.32;6.93;;;;;;;2.10;46.16;100455.53;5033393;28;20124;-66
2020/12/10 02:29:03;;;;;;;12.80;6.88;;;;;;;2.12;46.39;100453.63;5034052;28;20045;-66
2020/12/10 02:31:32;;;;;;;16.65;7.97;;;;;;;2.13;45.98;100441.00;5034520;28;20117;-66
2020/12/10 02:34:01;;;;;;;16.23;7.65;;;;;;;2.10;46.10;100439.34;5034384;28;20499;-66
2020/12/10 02:36:29;;;;;;;12.88;7.15;;;;;;;2.10;46.03;100442.03;5034016;28;20041;-66
2020/12/10 02:38:56;;;;;;;16.83;8.10;;;;;;;2.08;45.95;100433.16;5032963;28;20493;-66
2020/12/10 02:41:25;;;;;;;14.00;6.95;;;;;;;2.10;46.40;100425.84;5020121;28;20066;-66
2020/12/10 02:43:53;;;;;;;13.60;6.70;;;;;;;2.09;45.97;100428.63;5014604;28;20061;-66
2020/12/10 02:46:20;;;;;;;12.65;6.63;;;;;;;2.08;46.25;100426.91;5027218;28;20107;-65
2020/12/10 02:48:47;;;;;;;13.70;7.50;;;;;;;2.08;46.29;100430.47;5033695;28;20077;-66
2020/12/10 02:51:15;;;;;;;14.35;7.18;;;;;;;2.08;46.08;100429.59;5030951;28;20835;-66
2020/12/10 02:53:42;;;;;;;16.58;8.05;;;;;;;2.07;46.03;100428.72;5005959;28;20033;-65
2020/12/10 02:56:11;;;;;;;13.75;7.32;;;;;;;2.08;46.25;100416.97;5034068;28;20054;-66
2020/12/10 02:58:40;;;;;;;17.50;8.57;;;;;;;2.08;46.21;100414.28;5033168;28;20045;-66
2020/12/10 03:01:09;;;;;;;14.98;7.63;;;;;;;2.06;46.05;100412.63;5033928;28;20490;-66
2020/12/10 03:03:37;;;;;;;18.58;8.57;;;;;;;2.03;45.90;100407.41;5033924;28;20045;-66
2020/12/10 03:06:05;;;;;;;14.77;7.25;;;;;;;2.02;45.70;100394.88;5039657;28;20496;-66
2020/12/10 03:08:33;;;;;;;16.27;7.28;;;;;;;1.99;46.03;100404.03;5033011;28;20045;-66
2020/12/10 03:11:01;;;;;;;17.08;8.35;;;;;;;1.97;45.95;100400.53;5032866;28;20056;-66
2020/12/10 03:13:28;;;;;;;14.55;7.95;;;;;;;1.93;45.69;100388.19;5033900;28;20112;-66
2020/12/10 03:15:57;;;;;;;16.02;7.43;;;;;;;1.94;45.86;100386.38;5033385;28;20112;-66
2020/12/10 03:18:27;;;;;;;18.90;8.25;;;;;;;1.90;45.93;100387.50;5033560;28;20053;-65
2020/12/10 03:20:54;;;;;;;15.38;8.02;;;;;;;1.87;45.81;100377.78;5032011;28;20120;-66
2020/12/10 03:23:21;;;;;;;17.77;7.72;;;;;;;1.87;45.83;100380.47;5027706;28;20433;-67
2020/12/10 03:25:49;;;;;;;17.35;8.10;;;;;;;1.84;45.95;100383.34;5016731;28;20041;-66
2020/12/10 03:28:16;;;;;;;16.88;8.93;;;;;;;1.82;45.97;100382.53;5033511;28;20038;-66
2020/12/10 03:30:44;;;;;;;16.50;7.85;;;;;;;1.79;45.94;100383.63;5032535;28;20129;-66
2020/12/10 03:33:12;;;;;;;15.70;8.00;;;;;;;1.79;45.69;100378.22;5033286;28;20046;-66
2020/12/10 03:35:39;;;;;;;14.68;7.75;;;;;;;1.74;46.01;100371.34;5033167;28;20107;-66
2020/12/10 03:38:07;;;;;;;17.45;8.13;;;;;;;1.71;46.01;100368.84;5033063;28;20096;-66
2020/12/10 03:40:34;;;;;;;18.08;8.23;;;;;;;1.70;46.11;100370.66;5032713;28;20041;-66
2020/12/10 03:43:01;;;;;;;16.25;7.88;;;;;;;1.69;46.15;100365.34;5033303;28;20103;-66
2020/12/10 03:45:29;;;;;;;17.13;8.50;;;;;;;1.69;46.32;100362.66;5033259;28;20049;-66
2020/12/10 03:47:56;;;;;;;15.00;7.20;;;;;;;1.67;45.94;100360.03;5023914;28;20120;-66
2020/12/10 03:50:24;;;;;;;15.32;7.25;;;;;;;1.69;46.53;100363.53;5026247;28;20065;-66
2020/12/10 03:52:53;;;;;;;15.27;7.85;;;;;;;1.68;46.07;100369.88;5034338;28;20037;-66
2020/12/10 03:55:20;;;;;;;17.30;8.45;;;;;;;1.68;46.59;100361.78;5033247;28;20068;-66
2020/12/10 03:57:47;;;;;;;17.67;8.13;;;;;;;1.68;46.25;100355.50;5032989;28;20058;-66
2020/12/10 04:00:14;;;;;;;19.52;8.07;;;;;;;1.68;46.16;100361.78;5031533;28;20088;-66
2020/12/10 04:02:42;;;;;;;17.73;8.80;;;;;;;1.68;46.16;100369.00;5032878;28;20049;-66
2020/12/10 04:05:09;;;;;;;18.33;8.32;;;;;;;1.68;46.38;100363.59;5032742;28;20041;-66
2020/12/10 04:07:37;;;;;;;16.70;8.23;;;;;;;1.68;46.07;100367.16;5032816;28;20041;-66
2020/12/10 04:10:05;;;;;;;17.45;8.90;;;;;;;1.66;46.08;100360.13;5031920;28;20045;-66
2020/12/10 04:12:33;;;;;;;18.92;8.88;;;;;;;1.63;46.04;100355.78;5032866;28;20103;-66
2020/12/10 04:15:00;;;;;;;17.55;8.65;;;;;;;1.63;46.29;100349.53;5032793;28;20042;-66
2020/12/10 04:17:28;;;;;;;17.75;8.80;;;;;;;1.62;46.30;100355.88;5037974;28;20060;-65
2020/12/10 04:19:55;;;;;;;18.27;8.70;;;;;;;1.60;46.25;100350.56;5032016;28;20041;-66
2020/12/10 04:22:22;;;;;;;17.90;8.65;;;;;;;1.61;46.09;100356.81;5032418;28;20116;-66
2020/12/10 04:24:51;;;;;;;15.98;8.48;;;;;;;1.60;46.09;100347.00;5032798;28;20048;-66
2020/12/10 04:27:18;;;;;;;19.83;9.20;;;;;;;1.58;46.01;100355.16;5032074;28;20041;-66
2020/12/10 04:29:45;;;;;;;19.40;9.57;;;;;;;1.56;46.10;100354.38;5030777;28;20132;-66
2020/12/10 04:32:12;;;;;;;16.30;7.82;;;;;;;1.56;46.47;100354.38;5032374;28;20056;-66
2020/12/10 04:34:40;;;;;;;18.45;8.27;;;;;;;1.55;45.99;100349.97;5031923;28;20049;-66
2020/12/10 04:37:07;;;;;;;16.63;8.43;;;;;;;1.55;46.12;100354.50;5032534;28;20041;-66
2020/12/10 04:39:46;;;;;;;16.35;7.55;;;;;;;1.52;46.38;100344.75;5031662;28;20057;-66
2020/12/10 04:42:17;;;;;;;19.25;8.75;;;;;;;1.53;46.41;100346.50;5032394;28;20049;-66
2020/12/10 04:44:45;;;;;;;20.27;9.00;;;;;;;1.53;46.44;100353.69;5032389;28;20041;-66
2020/12/10 04:47:13;;;;;;;16.25;8.82;;;;;;;1.53;46.47;100351.00;5032353;28;20376;-66
2020/12/10 04:49:41;;;;;;;16.38;8.20;;;;;;;1.51;46.23;100347.53;5013810;28;20045;-66
2020/12/10 04:52:11;;;;;;;15.35;8.45;;;;;;;1.52;46.15;100343.88;5031848;28;20048;-66
2020/12/10 04:54:39;;;;;;;21.77;9.68;;;;;;;1.50;46.24;100341.25;5047699;28;20095;-66
2020/12/10 04:57:10;;;;;;;19.08;8.98;;;;;;;1.50;46.44;100346.66;5014747;28;20107;-65
2020/12/10 04:59:39;;;;;;;19.13;9.18;;;;;;;1.48;46.11;100343.16;5031566;28;20049;-66
2020/12/10 05:02:09;;;;;;;17.70;8.70;;;;;;;1.49;46.35;100330.56;5032017;28;20442;-66
2020/12/10 05:04:37;;;;;;;19.38;8.98;;;;;;;1.45;46.50;100337.97;5030625;28;20049;-66
2020/12/10 05:07:05;;;;;;;18.55;8.73;;;;;;;1.45;46.04;100329.88;5029070;28;20044;-66
2020/12/10 05:09:33;;;;;;;17.98;9.13;;;;;;;1.44;46.42;100333.53;5010362;28;20050;-66
2020/12/10 05:12:00;;;;;;;18.88;8.93;;;;;;;1.43;46.13;100325.53;5012749;28;20056;-66
2020/12/10 05:14:43;;;;;;;19.10;9.50;;;;;;;1.43;46.29;100328.22;5030565;28;20043;-66
2020/12/10 05:17:14;;;;;;;17.65;8.15;;;;;;;1.39;46.58;100324.84;5032329;28;20041;-66
2020/12/10 05:19:42;;;;;;;16.52;8.63;;;;;;;1.39;46.22;100335.63;5013502;28;20045;-66
2020/12/10 05:22:10;;;;;;;18.45;9.02;;;;;;;1.37;46.02;100327.63;5035087;28;20419;-66
2020/12/10 05:24:37;;;;;;;19.90;9.10;;;;;;;1.38;46.41;100331.19;5033331;28;20088;-66
2020/12/10 05:27:20;;;;;;;18.80;8.93;;;;;;;1.38;46.41;100332.06;5035941;28;20049;-66
2020/12/10 05:29:49;;;;;;;19.48;8.82;;;;;;;1.32;46.25;100328.81;5049581;28;20099;-66
2020/12/10 05:32:40;;;;;;;17.77;9.18;;;;;;;1.32;46.60;100327.00;5033973;28;20037;-66
2020/12/10 05:35:22;;;;;;;17.85;8.43;;;;;;;1.33;46.61;100327.88;5034818;28;20099;-66
2020/12/10 05:37:50;;;;;;;17.17;8.45;;;;;;;1.30;46.43;100331.63;5034527;28;20428;-66
2020/12/10 05:40:18;;;;;;;17.65;9.00;;;;;;;1.30;46.50;100339.72;5050365;28;20065;-66
2020/12/10 05:42:47;;;;;;;18.90;8.73;;;;;;;1.31;46.58;100340.59;5035480;28;20412;-66
2020/12/10 05:45:16;;;;;;;14.35;8.13;;;;;;;1.32;46.75;100339.59;5035803;28;20037;-66
2020/12/10 05:47:52;;;;;;;17.27;8.80;;;;;;;1.35;46.62;100337.63;5022396;28;20075;-66
2020/12/10 05:50:24;;;;;;;16.60;8.50;;;;;;;1.34;46.59;100337.69;5022325;28;20056;-66
2020/12/10 05:53:02;;;;;;;16.75;8.20;;;;;;;1.35;47.14;100342.13;5034564;28;20063;-66
2020/12/10 05:55:30;;;;;;;17.10;7.55;;;;;;;1.35;46.60;100343.00;5035460;28;20041;-66
2020/12/10 05:57:59;;;;;;;19.25;8.63;;;;;;;1.37;46.90;100334.84;5035294;28;20037;-66
2020/12/10 06:00:27;;;;;;;15.20;8.05;;;;;;;1.38;46.65;100336.59;5034082;28;20068;-65
2020/12/10 06:02:56;;;;;;;19.25;8.75;;;;;;;1.40;46.85;100340.03;5017223;28;20141;-66
2020/12/10 06:05:24;;;;;;;16.73;8.60;;;;;;;1.39;46.74;100328.38;5034755;28;20041;-66
2020/12/10 06:08:08;;;;;;;20.80;9.65;;;;;;;1.43;46.81;100334.47;5035005;28;20045;-66
2020/12/10 06:10:37;;;;;;;18.92;9.23;;;;;;;1.39;46.52;100333.78;5013172;28;20050;-66
2020/12/10 06:13:04;;;;;;;16.85;8.88;;;;;;;1.43;46.99;100333.63;5015278;28;20584;-66
2020/12/10 06:15:33;;;;;;;17.17;7.75;;;;;;;1.45;46.57;100334.41;5034345;28;20038;-66
2020/12/10 06:18:07;;;;;;;20.38;9.68;;;;;;;1.48;46.70;100340.47;5035037;28;20084;-66
2020/12/10 06:20:40;;;;;;;16.48;8.75;;;;;;;1.46;46.71;100338.84;5034028;28;20037;-66
2020/12/10 06:23:37;;;;;;;17.87;8.73;;;;;;;1.46;46.92;100345.09;5029179;28;20042;-66
2020/12/10 06:26:38;;;;;;;17.85;9.02;;;;;;;1.46;46.52;100339.72;5015015;28;20044;-66
2020/12/10 06:29:19;;;;;;;20.25;9.35;;;;;;;1.50;46.65;100340.38;5015907;28;20064;-66
2020/12/10 06:32:07;;;;;;;16.67;8.70;;;;;;;1.48;46.72;100348.56;5033615;28;20489;-65
2020/12/10 06:34:43;;;;;;;15.52;8.13;;;;;;;1.49;46.60;100341.34;5034137;28;20083;-66
2020/12/10 06:37:35;;;;;;;16.63;8.52;;;;;;;1.50;46.87;100343.09;5049748;28;20129;-66
2020/12/10 06:40:04;;;;;;;16.95;8.80;;;;;;;1.47;46.39;100340.59;5031839;28;20090;-66
2020/12/10 06:42:45;;;;;;;18.70;9.10;;;;;;;1.51;46.65;100339.44;5034447;28;20041;-66
2020/12/10 06:45:34;;;;;;;19.55;9.63;;;;;;;1.50;46.56;100343.94;5021943;28;20065;-66
2020/12/10 06:48:02;;;;;;;18.42;9.45;;;;;;;1.47;46.44;100338.75;5028915;28;20041;-66
2020/12/10 06:50:32;;;;;;;18.95;9.40;;;;;;;1.50;46.44;100338.56;5038819;28;20381;-66
2020/12/10 06:53:14;;;;;;;17.70;8.63;;;;;;;1.51;46.54;100345.69;5033886;28;20049;-65
2020/12/10 06:56:16;;;;;;;17.08;8.35;;;;;;;1.44;46.56;100352.41;5034172;28;20049;-66
2020/12/10 06:58:55;;;;;;;19.98;9.77;;;;;;;1.46;46.41;100345.09;5032404;28;20045;-66
2020/12/10 07:01:26;;;;;;;17.25;8.45;;;;;;;1.47;46.38;100345.97;5033728;28;20046;-66
2020/12/10 07:04:09;;;;;;;18.88;8.90;;;;;;;1.48;46.26;100345.84;5016400;28;20601;-66
2020/12/10 07:06:37;;;;;;;15.85;6.82;;;;;;;1.39;46.63;100349.94;5014112;28;20108;-66
2020/12/10 07:09:07;;;;;;;19.38;9.65;;;;;;;1.45;46.50;100345.19;5013239;28;20129;-66
2020/12/10 07:11:36;;;;;;;16.67;8.27;;;;;;;1.46;46.61;100347.78;5033508;28;20099;-66
2020/12/10 07:14:21;;;;;;;16.05;7.90;;;;;;;1.46;46.51;100345.09;5014774;28;20132;-65
2020/12/10 07:16:49;;;;;;;16.42;8.18;;;;;;;1.43;46.23;100353.34;5033519;28;20061;-66
2020/12/10 07:19:16;;;;;;;16.40;7.82;;;;;;;1.43;46.67;100353.34;5033130;28;20045;-65
2020/12/10 07:21:45;;;;;;;16.67;8.80;;;;;;;1.43;46.41;100357.88;5032304;28;20056;-66
2020/12/10 07:24:12;;;;;;;16.85;8.30;;;;;;;1.42;46.52;100370.47;5015723;28;20048;-66
2020/12/10 07:26:41;;;;;;;19.60;9.20;;;;;;;1.42;46.27;100367.78;5033610;28;20037;-66
2020/12/10 07:29:09;;;;;;;18.10;8.32;;;;;;;1.42;46.51;100362.38;5032065;28;20049;-66
2020/12/10 07:31:37;;;;;;;17.08;8.48;;;;;;;1.42;46.60;100365.09;5033452;28;20049;-65
2020/12/10 07:34:04;;;;;;;17.15;8.40;;;;;;;1.43;46.56;100366.81;5048709;28;20088;-66
2020/12/10 07:36:32;;;;;;;14.63;7.95;;;;;;;1.43;46.45;100361.44;5033278;28;20480;-66
2020/12/10 07:39:00;;;;;;;19.60;8.95;;;;;;;1.44;46.44;100365.88;5032551;28;20714;-66
2020/12/10 07:41:37;;;;;;;17.08;8.88;;;;;;;1.46;46.67;100360.41;5033453;28;20044;-66
2020/12/10 07:44:05;;;;;;;16.88;8.18;;;;;;;1.43;46.57;100361.44;5032525;28;20029;-66
2020/12/10 07:46:36;;;;;;;18.80;8.80;;;;;;;1.46;46.86;100363.09;5033419;28;20045;-66
2020/12/10 07:49:03;;;;;;;16.80;8.38;;;;;;;1.44;46.85;100354.22;5035606;28;20065;-66
2020/12/10 07:51:31;;;;;;;16.10;8.65;;;;;;;1.44;46.73;100365.88;5028138;28;20042;-66
2020/12/10 07:54:03;;;;;;;15.52;8.10;;;;;;;1.46;46.42;100361.28;5029776;28;20045;-65
2020/12/10 07:56:32;;;;;;;19.77;9.10;;;;;;;1.45;46.57;100362.22;5016939;28;20465;-66
2020/12/10 07:59:06;;;;;;;16.05;8.45;;;;;;;1.47;46.67;100356.75;5029356;28;21102;-66
2020/12/10 08:01:38;;;;;;;15.38;8.48;;;;;;;1.46;46.90;100365.78;5018875;28;20104;-66
2020/12/10 08:04:16;;;;;;;19.75;9.38;;;;;;;1.46;46.88;100363.97;5028701;28;20044;-66
2020/12/10 08:06:45;;;;;;;15.90;8.48;;;;;;;1.46;46.73;100365.78;5028872;28;20049;-66
2020/12/10 08:09:13;;;;;;;17.05;7.57;;;;;;;1.48;46.50;100364.72;5015768;28;20042;-66
2020/12/10 08:11:52;;;;;;;17.02;8.15;;;;;;;1.50;46.60;100357.44;5036556;28;20450;-66
2020/12/10 08:14:27;;;;;;;20.55;9.30;;;;;;;1.49;46.09;100360.22;5032686;28;20295;-65
2020/12/10 08:16:55;;;;;;;17.58;8.63;;;;;;;1.46;46.56;100363.97;5031426;28;20046;-66
2020/12/10 08:19:25;;;;;;;16.92;8.93;;;;;;;1.48;46.61;100362.03;5017860;28;20045;-66
2020/12/10 08:21:54;;;;;;;15.57;8.43;;;;;;;1.47;46.50;100368.41;5034522;28;20098;-66
2020/12/10 08:24:38;;;;;;;16.25;8.27;;;;;;;1.49;46.53;100361.06;5040512;28;20044;-66
2020/12/10 08:27:06;;;;;;;16.83;8.70;;;;;;;1.46;46.64;100363.97;5019952;28;20397;-66
2020/12/10 08:29:33;;;;;;;16.20;8.15;;;;;;;1.46;46.63;100360.41;5030872;28;20068;-66
2020/12/10 08:32:08;;;;;;;18.10;9.40;;;;;;;1.49;46.81;100355.69;5031870;28;20041;-66
2020/12/10 08:34:37;;;;;;;17.42;9.20;;;;;;;1.46;46.83;100365.78;5031349;28;20063;-65
2020/12/10 08:37:05;;;;;;;18.98;9.10;;;;;;;1.47;46.65;100356.75;5030925;28;20065;-66
2020/12/10 08:39:34;;;;;;;18.33;8.95;;;;;;;1.47;46.50;100354.06;5046388;28;20404;-66
2020/12/10 08:42:02;;;;;;;18.05;9.02;;;;;;;1.46;46.80;100350.50;5031530;28;20049;-66
2020/12/10 08:44:44;;;;;;;19.17;9.77;;;;;;;1.48;46.81;100353.94;5031179;28;20136;-66
2020/12/10 08:47:23;;;;;;;16.33;8.38;;;;;;;1.48;46.88;100353.94;5025048;28;20065;-66
2020/12/10 08:50:23;;;;;;;14.65;7.75;;;;;;;1.47;46.93;100344.16;5046933;28;20046;-66
2020/12/10 08:53:02;;;;;;;16.20;7.75;;;;;;;1.47;46.90;100354.06;5030350;28;20041;-66
2020/12/10 08:55:37;;;;;;;16.10;8.07;;;;;;;1.50;47.01;100357.44;5033062;28;20255;-66
2020/12/10 08:58:05;;;;;;;16.13;8.23;;;;;;;1.50;46.98;100353.88;5032280;28;20099;-66
2020/12/10 09:00:35;;;;;;;16.63;8.27;;;;;;;1.52;46.91;100360.03;5034049;28;20158;-66
2020/12/10 09:03:04;;;;;;;15.98;8.05;;;;;;;1.54;46.91;100360.84;5035679;28;20033;-66
2020/12/10 09:05:32;;;;;;;16.95;8.68;;;;;;;1.56;47.26;100362.47;5017659;28;20061;-66
2020/12/10 09:07:59;;;;;;;19.88;9.25;;;;;;;1.59;47.18;100358.72;5035453;28;20037;-66
2020/12/10 09:10:29;;;;;;;16.02;7.63;;;;;;;1.60;46.98;100360.47;5047103;28;20572;-66
2020/12/10 09:12:59;;;;;;;14.95;7.53;;;;;;;1.64;46.92;100362.06;5020776;28;20459;-66
2020/12/10 09:15:40;;;;;;;16.77;8.20;;;;;;;1.62;47.10;100356.75;5035239;28;20045;-66
2020/12/10 09:18:08;;;;;;;15.75;8.02;;;;;;;1.67;47.18;100351.06;5029957;28;20045;-66
2020/12/10 09:20:36;;;;;;;17.58;8.48;;;;;;;1.69;47.08;100354.56;5023369;28;20037;-66
2020/12/10 09:23:03;;;;;;;15.68;7.88;;;;;;;1.71;47.11;100355.34;5032770;28;20060;-67
2020/12/10 09:25:31;;;;;;;17.98;8.93;;;;;;;1.74;47.20;100357.84;5033940;28;20033;-66
2020/12/10 09:27:59;;;;;;;18.05;8.45;;;;;;;1.78;46.99;100359.44;5035281;28;20130;-66
2020/12/10 09:30:27;;;;;;;15.70;8.02;;;;;;;1.80;47.42;100362.91;5034030;28;20055;-66
2020/12/10 09:32:55;;;;;;;16.30;8.57;;;;;;;1.82;47.02;100365.50;5034187;28;20502;-66
2020/12/10 09:35:23;;;;;;;16.15;8.27;;;;;;;1.84;47.05;100353.66;5033568;28;20076;-66
2020/12/10 09:37:50;;;;;;;16.98;8.70;;;;;;;1.87;47.03;100349.94;5040096;28;20111;-66
2020/12/10 09:40:17;;;;;;;15.07;7.93;;;;;;;1.89;47.25;100354.25;5034108;28;20069;-66
2020/12/10 09:42:47;;;;;;;14.77;7.43;;;;;;;1.91;47.02;100349.66;5034499;28;20041;-66
2020/12/10 09:45:17;;;;;;;14.50;7.47;;;;;;;1.92;47.23;100351.41;5017212;28;20041;-66
2020/12/10 09:47:47;;;;;;;17.60;8.95;;;;;;;1.95;47.09;100361.13;5020534;28;20053;-66
2020/12/10 09:50:24;;;;;;;16.55;8.07;;;;;;;1.95;47.37;100362.00;5033296;28;20034;-66
2020/12/10 09:53:06;;;;;;;15.68;7.53;;;;;;;1.96;47.38;100366.44;5034657;28;20050;-66
2020/12/10 09:56:12;;;;;;;15.18;7.10;;;;;;;1.98;47.35;100363.63;5034337;28;20076;-66
2020/12/10 09:58:40;;;;;;;14.80;7.45;;;;;;;1.98;47.21;100363.63;5034137;28;20053;-66
2020/12/10 10:01:12;;;;;;;16.88;8.38;;;;;;;2.03;47.24;100362.44;5034444;28;20530;-66
2020/12/10 10:03:39;;;;;;;16.60;8.10;;;;;;;2.02;47.34;100367.91;5034378;28;20246;-66
2020/12/10 10:06:12;;;;;;;17.45;8.23;;;;;;;2.07;47.58;100371.19;5032613;28;20053;-66
2020/12/10 10:08:40;;;;;;;14.98;7.93;;;;;;;2.08;47.27;100365.72;5015714;28;20052;-66
2020/12/10 10:11:07;;;;;;;14.80;7.03;;;;;;;2.11;47.19;100376.34;5033622;28;20570;-66
2020/12/10 10:13:35;;;;;;;16.70;8.38;;;;;;;2.15;47.36;100368.91;5025781;28;20133;-66
2020/12/10 10:16:03;;;;;;;14.00;7.18;;;;;;;2.18;47.23;100376.84;5034332;28;20037;-66
2020/12/10 10:18:31;;;;;;;15.90;8.15;;;;;;;2.24;47.45;100370.19;5016316;28;20045;-66
2020/12/10 10:21:01;;;;;;;15.70;7.68;;;;;;;2.27;47.35;100372.72;5033382;28;20091;-66
2020/12/10 10:23:29;;;;;;;16.30;8.43;;;;;;;2.30;47.49;100367.16;5033779;28;20392;-65
2020/12/10 10:25:56;;;;;;;15.80;7.72;;;;;;;2.34;47.53;100369.56;5034101;28;20037;-66
2020/12/10 10:28:24;;;;;;;14.95;8.27;;;;;;;2.37;47.43;100361.28;5031884;28;20111;-66
2020/12/10 10:30:51;;;;;;;15.57;8.73;;;;;;;2.41;47.40;100362.84;5031647;28;20108;-66
2020/12/10 10:33:22;;;;;;;15.50;8.65;;;;;;;2.46;47.53;100359.88;5033573;28;20047;-64
2020/12/10 10:35:53;;;;;;;16.48;8.73;;;;;;;2.50;47.56;100356.00;5033243;28;20046;-65
2020/12/10 10:38:21;;;;;;;17.50;9.18;;;;;;;2.56;47.44;100355.63;5033918;28;20045;-66
2020/12/10 10:40:48;;;;;;;13.85;8.00;;;;;;;2.59;47.43;100336.56;5032847;28;20045;-66
2020/12/10 10:43:16;;;;;;;15.88;8.57;;;;;;;2.66;47.49;100337.03;5033571;28;20116;-66
2020/12/10 10:45:43;;;;;;;19.23;9.80;;;;;;;2.70;47.33;100339.47;5033710;28;20045;-66
2020/12/10 10:48:11;;;;;;;15.38;8.48;;;;;;;2.76;47.37;100346.31;5033699;28;20120;-66
2020/12/10 10:50:48;;;;;;;18.60;9.68;;;;;;;2.81;47.60;100336.94;5024513;28;20033;-66
2020/12/10 10:53:16;;;;;;;16.48;9.07;;;;;;;2.87;47.40;100336.59;5025286;28;20124;-66
2020/12/10 10:55:44;;;;;;;14.57;8.05;;;;;;;2.91;47.25;100321.91;5048930;28;20124;-66
2020/12/10 10:58:11;;;;;;;14.60;8.02;;;;;;;2.98;47.30;100319.66;5033633;28;20128;-66
2020/12/10 11:00:38;;;;;;;14.98;8.05;;;;;;;3.05;47.20;100312.03;5032208;28;20052;-66
2020/12/10 11:03:06;;;;;;;16.27;8.23;;;;;;;3.09;47.31;100313.59;5033414;28;20047;-66
2020/12/10 11:05:33;;;;;;;16.25;8.27;;;;;;;3.14;47.06;100317.72;5033472;28;20045;-66
2020/12/10 11:08:00;;;;;;;15.57;7.78;;;;;;;3.18;47.26;100319.28;5033528;28;20053;-66
2020/12/10 11:10:29;;;;;;;16.02;8.70;;;;;;;3.24;46.82;100320.72;5027763;28;20412;-66
2020/12/10 11:12:56;;;;;;;14.43;7.28;;;;;;;3.27;46.97;100304.31;5018579;28;20037;-66
2020/12/10 11:15:24;;;;;;;12.77;7.15;;;;;;;3.30;46.91;100304.97;5032914;28;20048;-66
2020/12/10 11:17:52;;;;;;;13.77;7.47;;;;;;;3.34;46.81;100308.34;5032657;28;20125;-66
2020/12/10 11:20:20;;;;;;;12.57;7.00;;;;;;;3.37;47.06;100300.00;5031967;28;20052;-66
2020/12/10 11:22:47;;;;;;;13.95;7.68;;;;;;;3.39;46.81;100294.50;5032401;28;20046;-66
2020/12/10 11:25:14;;;;;;;15.13;7.40;;;;;;;3.42;46.55;100291.63;5033141;28;20073;-66
2020/12/10 11:27:43;;;;;;;13.52;7.18;;;;;;;3.45;46.42;100292.31;5032934;28;20060;-66
2020/12/10 11:30:10;;;;;;;13.25;7.13;;;;;;;3.48;46.40;100291.22;5032060;28;20049;-66
2020/12/10 11:32:38;;;;;;;13.60;6.55;;;;;;;3.46;46.67;100280.50;5030811;28;20045;-66
2020/12/10 11:35:05;;;;;;;12.70;6.72;;;;;;;3.50;46.56;100281.16;5016410;28;20145;-66
2020/12/10 11:37:33;;;;;;;13.38;6.85;;;;;;;3.53;46.42;100286.38;5043426;28;20044;-66